sensor_id;sensor_type;location;lat;lon;timestamp;P1;durP1;ratioP1;P2;durP2;ratioP2
5882;SDS011;2967;51.488;6.618;2024-03-06T00:03:24;20.10;;;13.43;;
5882;SDS011;2967;51.488;6.618;2024-03-06T00:08:27;17.93;;;12.17;;
5882;SDS011;2967;51.488;6.618;2024-03-06T00:13:30;15.80;;;11.63;;
5882;SDS011;2967;51.488;6.618;2024-03-06T00:18:34;18.87;;;12.73;;
5882;SDS011;2967;51.488;6.618;2024-03-06T00:23:37;15.33;;;11.43;;
5882;SDS011;2967;51.488;6.618;2024-03-06T00:28:40;23.10;;;12.57;;
5882;SDS011;2967;51.488;6.618;2024-03-06T00:33:44;15.70;;;12.00;;
5882;SDS011;2967;51.488;6.618;2024-03-06T00:38:47;13.30;;;10.43;;
5882;SDS011;2967;51.488;6.618;2024-03-06T00:43:50;10.60;;;9.40;;
5882;SDS011;2967;51.488;6.618;2024-03-06T00:48:54;12.97;;;10.33;;
5882;SDS011;2967;51.488;6.618;2024-03-06T00:53:57;18.10;;;11.00;;
5882;SDS011;2967;51.488;6.618;2024-03-06T00:59:00;13.87;;;10.87;;
5882;SDS011;2967;51.488;6.618;2024-03-06T01:04:04;13.50;;;10.80;;
5882;SDS011;2967;51.488;6.618;2024-03-06T01:09:07;14.60;;;10.53;;
5882;SDS011;2967;51.488;6.618;2024-03-06T01:14:10;15.47;;;11.60;;
5882;SDS011;2967;51.488;6.618;2024-03-06T01:19:20;17.83;;;11.17;;
5882;SDS011;2967;51.488;6.618;2024-03-06T01:24:23;18.07;;;11.07;;
5882;SDS011;2967;51.488;6.618;2024-03-06T01:29:26;13.50;;;10.23;;
5882;SDS011;2967;51.488;6.618;2024-03-06T01:34:30;11.90;;;9.30;;
5882;SDS011;2967;51.488;6.618;2024-03-06T01:39:32;15.53;;;9.90;;
5882;SDS011;2967;51.488;6.618;2024-03-06T01:44:38;13.87;;;11.40;;
5882;SDS011;2967;51.488;6.618;2024-03-06T01:49:42;16.27;;;11.40;;
5882;SDS011;2967;51.488;6.618;2024-03-06T01:54:48;14.07;;;10.30;;
5882;SDS011;2967;51.488;6.618;2024-03-06T01:59:52;15.30;;;10.70;;
5882;SDS011;2967;51.488;6.618;2024-03-06T02:04:57;19.87;;;12.23;;
5882;SDS011;2967;51.488;6.618;2024-03-06T02:10:13;17.60;;;11.10;;
5882;SDS011;2967;51.488;6.618;2024-03-06T02:15:18;14.90;;;11.00;;
5882;SDS011;2967;51.488;6.618;2024-03-06T02:20:23;12.43;;;9.90;;
5882;SDS011;2967;51.488;6.618;2024-03-06T02:25:27;16.23;;;10.93;;
5882;SDS011;2967;51.488;6.618;2024-03-06T02:30:29;14.40;;;9.70;;
5882;SDS011;2967;51.488;6.618;2024-03-06T02:35:42;13.70;;;11.80;;
5882;SDS011;2967;51.488;6.618;2024-03-06T02:40:47;10.93;;;9.60;;
5882;SDS011;2967;51.488;6.618;2024-03-06T02:45:51;20.73;;;12.00;;
5882;SDS011;2967;51.488;6.618;2024-03-06T02:50:56;11.77;;;9.10;;
5882;SDS011;2967;51.488;6.618;2024-03-06T02:55:59;15.40;;;12.07;;
5882;SDS011;2967;51.488;6.618;2024-03-06T03:01:02;14.80;;;11.60;;
5882;SDS011;2967;51.488;6.618;2024-03-06T03:06:06;18.00;;;12.03;;
5882;SDS011;2967;51.488;6.618;2024-03-06T03:11:09;16.17;;;11.30;;
5882;SDS011;2967;51.488;6.618;2024-03-06T03:16:16;15.00;;;11.30;;
5882;SDS011;2967;51.488;6.618;2024-03-06T03:21:21;13.50;;;10.37;;
5882;SDS011;2967;51.488;6.618;2024-03-06T03:26:24;13.30;;;10.50;;
5882;SDS011;2967;51.488;6.618;2024-03-06T03:31:26;17.23;;;12.93;;
5882;SDS011;2967;51.488;6.618;2024-03-06T03:36:30;18.53;;;13.07;;
5882;SDS011;2967;51.488;6.618;2024-03-06T03:41:34;14.80;;;11.83;;
5882;SDS011;2967;51.488;6.618;2024-03-06T03:46:37;18.30;;;12.03;;
5882;SDS011;2967;51.488;6.618;2024-03-06T03:51:41;16.70;;;12.20;;
5882;SDS011;2967;51.488;6.618;2024-03-06T03:56:44;17.00;;;13.00;;
5882;SDS011;2967;51.488;6.618;2024-03-06T04:01:47;19.23;;;13.33;;
5882;SDS011;2967;51.488;6.618;2024-03-06T04:06:53;18.90;;;12.47;;
5882;SDS011;2967;51.488;6.618;2024-03-06T04:11:56;15.50;;;12.77;;
5882;SDS011;2967;51.488;6.618;2024-03-06T04:16:59;16.53;;;12.77;;
5882;SDS011;2967;51.488;6.618;2024-03-06T04:22:05;21.93;;;14.10;;
5882;SDS011;2967;51.488;6.618;2024-03-06T04:27:10;22.50;;;13.40;;
5882;SDS011;2967;51.488;6.618;2024-03-06T04:32:13;16.30;;;12.30;;
5882;SDS011;2967;51.488;6.618;2024-03-06T04:37:17;20.83;;;12.93;;
5882;SDS011;2967;51.488;6.618;2024-03-06T04:42:20;81.20;;;48.37;;
5882;SDS011;2967;51.488;6.618;2024-03-06T04:47:23;20.47;;;13.97;;
5882;SDS011;2967;51.488;6.618;2024-03-06T04:52:32;17.80;;;13.97;;
5882;SDS011;2967;51.488;6.618;2024-03-06T04:57:36;16.90;;;12.40;;
5882;SDS011;2967;51.488;6.618;2024-03-06T05:02:41;18.87;;;13.67;;
5882;SDS011;2967;51.488;6.618;2024-03-06T05:08:04;22.77;;;12.93;;
5882;SDS011;2967;51.488;6.618;2024-03-06T05:13:25;22.47;;;13.67;;
5882;SDS011;2967;51.488;6.618;2024-03-06T05:18:46;22.17;;;15.30;;
5882;SDS011;2967;51.488;6.618;2024-03-06T05:24:08;24.33;;;14.80;;
5882;SDS011;2967;51.488;6.618;2024-03-06T05:29:30;19.70;;;13.80;;
5882;SDS011;2967;51.488;6.618;2024-03-06T05:34:50;20.70;;;14.07;;
5882;SDS011;2967;51.488;6.618;2024-03-06T05:40:13;26.43;;;16.83;;
5882;SDS011;2967;51.488;6.618;2024-03-06T05:45:33;27.13;;;17.73;;
5882;SDS011;2967;51.488;6.618;2024-03-06T05:50:54;27.83;;;17.03;;
5882;SDS011;2967;51.488;6.618;2024-03-06T05:56:16;27.03;;;18.90;;
5882;SDS011;2967;51.488;6.618;2024-03-06T06:01:37;27.60;;;16.83;;
5882;SDS011;2967;51.488;6.618;2024-03-06T06:06:40;24.43;;;15.80;;
5882;SDS011;2967;51.488;6.618;2024-03-06T06:11:47;31.60;;;18.47;;
5882;SDS011;2967;51.488;6.618;2024-03-06T06:16:51;31.23;;;19.20;;
5882;SDS011;2967;51.488;6.618;2024-03-06T06:21:54;35.33;;;21.47;;
5882;SDS011;2967;51.488;6.618;2024-03-06T06:26:59;26.13;;;17.07;;
5882;SDS011;2967;51.488;6.618;2024-03-06T06:32:01;26.70;;;17.40;;
5882;SDS011;2967;51.488;6.618;2024-03-06T06:37:04;119.83;;;66.63;;
5882;SDS011;2967;51.488;6.618;2024-03-06T06:42:09;27.60;;;19.03;;
5882;SDS011;2967;51.488;6.618;2024-03-06T06:47:13;25.73;;;17.87;;
5882;SDS011;2967;51.488;6.618;2024-03-06T06:52:18;68.40;;;41.40;;
5882;SDS011;2967;51.488;6.618;2024-03-06T06:57:23;42.53;;;26.33;;
5882;SDS011;2967;51.488;6.618;2024-03-06T07:02:26;29.37;;;18.77;;
5882;SDS011;2967;51.488;6.618;2024-03-06T07:07:29;27.97;;;18.53;;
5882;SDS011;2967;51.488;6.618;2024-03-06T07:12:34;28.57;;;19.17;;
5882;SDS011;2967;51.488;6.618;2024-03-06T07:17:37;29.47;;;18.97;;
5882;SDS011;2967;51.488;6.618;2024-03-06T07:22:42;27.53;;;17.70;;
5882;SDS011;2967;51.488;6.618;2024-03-06T07:27:47;27.30;;;18.27;;
5882;SDS011;2967;51.488;6.618;2024-03-06T07:32:50;23.43;;;17.50;;
5882;SDS011;2967;51.488;6.618;2024-03-06T07:37:55;25.17;;;17.20;;
5882;SDS011;2967;51.488;6.618;2024-03-06T07:42:59;32.67;;;20.67;;
5882;SDS011;2967;51.488;6.618;2024-03-06T07:48:02;35.23;;;22.60;;
5882;SDS011;2967;51.488;6.618;2024-03-06T07:53:06;33.00;;;21.60;;
5882;SDS011;2967;51.488;6.618;2024-03-06T07:58:10;33.77;;;21.20;;
5882;SDS011;2967;51.488;6.618;2024-03-06T08:03:14;33.63;;;21.20;;
5882;SDS011;2967;51.488;6.618;2024-03-06T08:08:17;38.40;;;24.13;;
5882;SDS011;2967;51.488;6.618;2024-03-06T08:13:23;34.13;;;22.03;;
5882;SDS011;2967;51.488;6.618;2024-03-06T08:18:25;35.53;;;23.93;;
5882;SDS011;2967;51.488;6.618;2024-03-06T08:23:28;38.10;;;24.70;;
5882;SDS011;2967;51.488;6.618;2024-03-06T08:28:33;37.70;;;23.10;;
5882;SDS011;2967;51.488;6.618;2024-03-06T08:33:36;35.33;;;23.27;;
5882;SDS011;2967;51.488;6.618;2024-03-06T08:38:39;33.80;;;22.73;;
5882;SDS011;2967;51.488;6.618;2024-03-06T08:43:44;32.47;;;24.03;;
5882;SDS011;2967;51.488;6.618;2024-03-06T08:48:47;29.33;;;21.37;;
5882;SDS011;2967;51.488;6.618;2024-03-06T08:53:53;28.73;;;20.27;;
5882;SDS011;2967;51.488;6.618;2024-03-06T08:59:01;33.07;;;20.40;;
5882;SDS011;2967;51.488;6.618;2024-03-06T09:04:05;27.17;;;20.20;;
5882;SDS011;2967;51.488;6.618;2024-03-06T09:09:08;25.40;;;17.43;;
5882;SDS011;2967;51.488;6.618;2024-03-06T09:14:16;23.03;;;18.50;;
5882;SDS011;2967;51.488;6.618;2024-03-06T09:19:19;26.73;;;20.33;;
5882;SDS011;2967;51.488;6.618;2024-03-06T09:24:22;26.20;;;17.47;;
5882;SDS011;2967;51.488;6.618;2024-03-06T09:29:27;26.20;;;18.57;;
5882;SDS011;2967;51.488;6.618;2024-03-06T09:34:30;20.63;;;16.97;;
5882;SDS011;2967;51.488;6.618;2024-03-06T09:39:33;24.13;;;17.90;;
5882;SDS011;2967;51.488;6.618;2024-03-06T09:44:40;23.20;;;17.83;;
5882;SDS011;2967;51.488;6.618;2024-03-06T09:49:43;18.90;;;16.20;;
5882;SDS011;2967;51.488;6.618;2024-03-06T09:54:46;18.23;;;16.03;;
5882;SDS011;2967;51.488;6.618;2024-03-06T09:59:51;20.33;;;16.37;;
5882;SDS011;2967;51.488;6.618;2024-03-06T10:04:54;19.93;;;16.50;;
5882;SDS011;2967;51.488;6.618;2024-03-06T10:16:52;17.23;;;15.40;;
5882;SDS011;2967;51.488;6.618;2024-03-06T10:21:57;21.70;;;16.10;;
5882;SDS011;2967;51.488;6.618;2024-03-06T10:27:00;48.17;;;32.63;;
5882;SDS011;2967;51.488;6.618;2024-03-06T10:32:05;26.33;;;18.60;;
5882;SDS011;2967;51.488;6.618;2024-03-06T10:37:09;26.53;;;20.70;;
5882;SDS011;2967;51.488;6.618;2024-03-06T10:42:12;23.23;;;18.63;;
5882;SDS011;2967;51.488;6.618;2024-03-06T10:47:17;21.90;;;17.37;;
5882;SDS011;2967;51.488;6.618;2024-03-06T10:52:22;23.30;;;19.63;;
5882;SDS011;2967;51.488;6.618;2024-03-06T10:57:26;29.50;;;22.03;;
5882;SDS011;2967;51.488;6.618;2024-03-06T11:02:31;25.57;;;21.03;;
5882;SDS011;2967;51.488;6.618;2024-03-06T11:07:34;24.50;;;21.90;;
5882;SDS011;2967;51.488;6.618;2024-03-06T11:12:38;28.50;;;22.00;;
5882;SDS011;2967;51.488;6.618;2024-03-06T11:17:43;24.20;;;21.60;;
5882;SDS011;2967;51.488;6.618;2024-03-06T11:23:03;29.87;;;23.27;;
5882;SDS011;2967;51.488;6.618;2024-03-06T11:28:16;32.20;;;23.40;;
5882;SDS011;2967;51.488;6.618;2024-03-06T11:33:21;31.70;;;25.07;;
5882;SDS011;2967;51.488;6.618;2024-03-06T11:38:24;29.60;;;24.57;;
5882;SDS011;2967;51.488;6.618;2024-03-06T11:43:27;34.47;;;24.30;;
5882;SDS011;2967;51.488;6.618;2024-03-06T11:48:33;38.00;;;28.13;;
5882;SDS011;2967;51.488;6.618;2024-03-06T11:53:35;41.97;;;29.20;;
5882;SDS011;2967;51.488;6.618;2024-03-06T11:58:43;38.97;;;28.33;;
5882;SDS011;2967;51.488;6.618;2024-03-06T12:03:51;40.72;;;32.20;;
5882;SDS011;2967;51.488;6.618;2024-03-06T12:08:54;39.10;;;31.10;;
5882;SDS011;2967;51.488;6.618;2024-03-06T12:13:57;38.70;;;31.70;;
5882;SDS011;2967;51.488;6.618;2024-03-06T12:19:01;52.77;;;36.33;;
5882;SDS011;2967;51.488;6.618;2024-03-06T12:24:04;51.17;;;35.70;;
5882;SDS011;2967;51.488;6.618;2024-03-06T12:29:09;53.07;;;40.43;;
5882;SDS011;2967;51.488;6.618;2024-03-06T12:34:15;61.97;;;41.80;;
5882;SDS011;2967;51.488;6.618;2024-03-06T12:39:18;51.53;;;37.90;;
5882;SDS011;2967;51.488;6.618;2024-03-06T12:44:24;58.93;;;39.80;;
5882;SDS011;2967;51.488;6.618;2024-03-06T12:49:29;60.60;;;40.00;;
5882;SDS011;2967;51.488;6.618;2024-03-06T12:54:34;55.87;;;37.60;;
5882;SDS011;2967;51.488;6.618;2024-03-06T12:59:41;52.57;;;38.27;;
5882;SDS011;2967;51.488;6.618;2024-03-06T13:04:45;49.37;;;35.20;;
5882;SDS011;2967;51.488;6.618;2024-03-06T13:09:48;79.83;;;51.80;;
5882;SDS011;2967;51.488;6.618;2024-03-06T13:14:51;59.40;;;43.40;;
5882;SDS011;2967;51.488;6.618;2024-03-06T13:19:56;51.40;;;36.80;;
5882;SDS011;2967;51.488;6.618;2024-03-06T13:25:02;53.23;;;36.77;;
5882;SDS011;2967;51.488;6.618;2024-03-06T13:30:06;44.23;;;33.77;;
5882;SDS011;2967;51.488;6.618;2024-03-06T13:35:11;52.80;;;38.40;;
5882;SDS011;2967;51.488;6.618;2024-03-06T13:40:14;45.47;;;33.20;;
5882;SDS011;2967;51.488;6.618;2024-03-06T13:45:20;39.00;;;30.23;;
5882;SDS011;2967;51.488;6.618;2024-03-06T13:50:25;29.70;;;23.63;;
5882;SDS011;2967;51.488;6.618;2024-03-06T13:55:29;31.10;;;23.40;;
5882;SDS011;2967;51.488;6.618;2024-03-06T14:00:34;24.93;;;20.10;;
5882;SDS011;2967;51.488;6.618;2024-03-06T14:05:39;30.47;;;22.57;;
5882;SDS011;2967;51.488;6.618;2024-03-06T14:10:42;30.27;;;22.53;;
5882;SDS011;2967;51.488;6.618;2024-03-06T14:15:47;27.57;;;21.80;;
5882;SDS011;2967;51.488;6.618;2024-03-06T14:20:52;34.57;;;27.10;;
5882;SDS011;2967;51.488;6.618;2024-03-06T14:25:54;36.13;;;26.37;;
5882;SDS011;2967;51.488;6.618;2024-03-06T14:30:58;34.07;;;25.20;;
5882;SDS011;2967;51.488;6.618;2024-03-06T14:36:06;39.13;;;27.57;;
5882;SDS011;2967;51.488;6.618;2024-03-06T14:41:09;31.27;;;22.70;;
5882;SDS011;2967;51.488;6.618;2024-03-06T14:46:12;26.70;;;20.60;;
5882;SDS011;2967;51.488;6.618;2024-03-06T14:51:18;27.80;;;19.73;;
5882;SDS011;2967;51.488;6.618;2024-03-06T14:56:21;26.90;;;18.67;;
5882;SDS011;2967;51.488;6.618;2024-03-06T15:01:24;28.03;;;20.73;;
5882;SDS011;2967;51.488;6.618;2024-03-06T15:06:31;31.60;;;23.20;;
5882;SDS011;2967;51.488;6.618;2024-03-06T15:11:34;30.67;;;21.03;;
5882;SDS011;2967;51.488;6.618;2024-03-06T15:16:37;24.67;;;20.00;;
5882;SDS011;2967;51.488;6.618;2024-03-06T15:21:42;34.10;;;24.40;;
5882;SDS011;2967;51.488;6.618;2024-03-06T15:26:46;36.97;;;23.30;;
5882;SDS011;2967;51.488;6.618;2024-03-06T15:31:49;30.63;;;21.13;;
5882;SDS011;2967;51.488;6.618;2024-03-06T15:36:54;26.27;;;20.70;;
5882;SDS011;2967;51.488;6.618;2024-03-06T15:41:59;23.60;;;17.27;;
5882;SDS011;2967;51.488;6.618;2024-03-06T15:47:05;24.90;;;18.93;;
5882;SDS011;2967;51.488;6.618;2024-03-06T15:52:13;21.90;;;17.27;;
5882;SDS011;2967;51.488;6.618;2024-03-06T15:57:16;22.60;;;16.57;;
5882;SDS011;2967;51.488;6.618;2024-03-06T16:02:20;22.23;;;15.50;;
5882;SDS011;2967;51.488;6.618;2024-03-06T16:07:26;19.70;;;13.70;;
5882;SDS011;2967;51.488;6.618;2024-03-06T16:12:29;18.10;;;13.60;;
5882;SDS011;2967;51.488;6.618;2024-03-06T16:17:32;15.17;;;12.53;;
5882;SDS011;2967;51.488;6.618;2024-03-06T16:22:37;19.30;;;13.83;;
5882;SDS011;2967;51.488;6.618;2024-03-06T16:27:40;37.57;;;29.20;;
5882;SDS011;2967;51.488;6.618;2024-03-06T16:32:43;33.33;;;26.47;;
5882;SDS011;2967;51.488;6.618;2024-03-06T16:37:47;35.30;;;29.10;;
5882;SDS011;2967;51.488;6.618;2024-03-06T16:42:52;32.70;;;28.70;;
5882;SDS011;2967;51.488;6.618;2024-03-06T16:47:55;34.00;;;27.83;;
5882;SDS011;2967;51.488;6.618;2024-03-06T16:53:04;33.03;;;28.03;;
5882;SDS011;2967;51.488;6.618;2024-03-06T16:58:10;36.60;;;28.50;;
5882;SDS011;2967;51.488;6.618;2024-03-06T17:03:13;37.03;;;29.10;;
5882;SDS011;2967;51.488;6.618;2024-03-06T17:08:17;32.43;;;28.80;;
5882;SDS011;2967;51.488;6.618;2024-03-06T17:13:20;32.30;;;27.20;;
5882;SDS011;2967;51.488;6.618;2024-03-06T17:18:23;34.87;;;29.77;;
5882;SDS011;2967;51.488;6.618;2024-03-06T17:23:27;65.70;;;50.13;;
5882;SDS011;2967;51.488;6.618;2024-03-06T17:28:30;38.10;;;29.23;;
5882;SDS011;2967;51.488;6.618;2024-03-06T17:33:34;30.60;;;26.80;;
5882;SDS011;2967;51.488;6.618;2024-03-06T17:38:42;31.80;;;24.40;;
5882;SDS011;2967;51.488;6.618;2024-03-06T17:43:50;32.30;;;24.70;;
5882;SDS011;2967;51.488;6.618;2024-03-06T17:48:53;31.67;;;24.57;;
5882;SDS011;2967;51.488;6.618;2024-03-06T17:53:57;31.50;;;24.03;;
5882;SDS011;2967;51.488;6.618;2024-03-06T17:59:00;33.57;;;23.60;;
5882;SDS011;2967;51.488;6.618;2024-03-06T18:04:03;35.97;;;23.30;;
5882;SDS011;2967;51.488;6.618;2024-03-06T18:09:08;35.37;;;25.33;;
5882;SDS011;2967;51.488;6.618;2024-03-06T18:14:19;37.17;;;24.23;;
5882;SDS011;2967;51.488;6.618;2024-03-06T18:19:23;29.53;;;22.53;;
5882;SDS011;2967;51.488;6.618;2024-03-06T18:24:28;32.87;;;24.77;;
5882;SDS011;2967;51.488;6.618;2024-03-06T18:29:31;32.30;;;22.90;;
5882;SDS011;2967;51.488;6.618;2024-03-06T18:34:36;33.77;;;23.50;;
5882;SDS011;2967;51.488;6.618;2024-03-06T18:39:40;32.50;;;23.23;;
5882;SDS011;2967;51.488;6.618;2024-03-06T18:44:45;43.00;;;29.07;;
5882;SDS011;2967;51.488;6.618;2024-03-06T18:49:48;39.83;;;25.63;;
5882;SDS011;2967;51.488;6.618;2024-03-06T18:54:53;82.60;;;57.70;;
5882;SDS011;2967;51.488;6.618;2024-03-06T18:59:55;40.27;;;27.90;;
5882;SDS011;2967;51.488;6.618;2024-03-06T19:04:58;51.20;;;34.63;;
5882;SDS011;2967;51.488;6.618;2024-03-06T19:10:02;53.87;;;29.47;;
5882;SDS011;2967;51.488;6.618;2024-03-06T19:15:08;33.67;;;23.37;;
5882;SDS011;2967;51.488;6.618;2024-03-06T19:20:12;33.90;;;23.93;;
5882;SDS011;2967;51.488;6.618;2024-03-06T19:25:17;36.70;;;25.37;;
5882;SDS011;2967;51.488;6.618;2024-03-06T19:30:21;36.00;;;24.53;;
5882;SDS011;2967;51.488;6.618;2024-03-06T19:35:24;34.87;;;23.00;;
5882;SDS011;2967;51.488;6.618;2024-03-06T19:40:28;52.23;;;38.33;;
5882;SDS011;2967;51.488;6.618;2024-03-06T19:45:31;37.77;;;23.93;;
5882;SDS011;2967;51.488;6.618;2024-03-06T19:50:34;54.27;;;34.07;;
5882;SDS011;2967;51.488;6.618;2024-03-06T19:55:38;47.77;;;31.00;;
5882;SDS011;2967;51.488;6.618;2024-03-06T20:00:41;34.47;;;24.13;;
5882;SDS011;2967;51.488;6.618;2024-03-06T20:05:45;37.37;;;24.77;;
5882;SDS011;2967;51.488;6.618;2024-03-06T20:10:51;39.70;;;27.07;;
5882;SDS011;2967;51.488;6.618;2024-03-06T20:15:54;38.00;;;26.23;;
5882;SDS011;2967;51.488;6.618;2024-03-06T20:20:58;40.83;;;25.97;;
5882;SDS011;2967;51.488;6.618;2024-03-06T20:26:03;40.63;;;25.50;;
5882;SDS011;2967;51.488;6.618;2024-03-06T20:31:09;40.70;;;27.30;;
5882;SDS011;2967;51.488;6.618;2024-03-06T20:36:19;43.13;;;27.73;;
5882;SDS011;2967;51.488;6.618;2024-03-06T20:41:23;40.10;;;25.73;;
5882;SDS011;2967;51.488;6.618;2024-03-06T20:46:30;56.67;;;33.23;;
5882;SDS011;2967;51.488;6.618;2024-03-06T20:51:33;41.33;;;27.97;;
5882;SDS011;2967;51.488;6.618;2024-03-06T20:56:38;47.03;;;26.53;;
5882;SDS011;2967;51.488;6.618;2024-03-06T21:01:41;110.80;;;61.20;;
5882;SDS011;2967;51.488;6.618;2024-03-06T21:06:46;43.57;;;28.07;;
5882;SDS011;2967;51.488;6.618;2024-03-06T21:11:50;40.77;;;26.10;;
5882;SDS011;2967;51.488;6.618;2024-03-06T21:16:56;45.43;;;27.00;;
5882;SDS011;2967;51.488;6.618;2024-03-06T21:22:01;45.07;;;28.77;;
5882;SDS011;2967;51.488;6.618;2024-03-06T21:27:07;47.53;;;27.40;;
5882;SDS011;2967;51.488;6.618;2024-03-06T21:32:10;47.20;;;28.80;;
5882;SDS011;2967;51.488;6.618;2024-03-06T21:37:12;44.70;;;29.10;;
5882;SDS011;2967;51.488;6.618;2024-03-06T21:42:18;49.93;;;29.50;;
5882;SDS011;2967;51.488;6.618;2024-03-06T21:47:21;47.20;;;28.37;;
5882;SDS011;2967;51.488;6.618;2024-03-06T21:52:25;47.40;;;27.23;;
5882;SDS011;2967;51.488;6.618;2024-03-06T21:57:29;44.67;;;28.57;;
5882;SDS011;2967;51.488;6.618;2024-03-06T22:02:31;46.80;;;29.53;;
5882;SDS011;2967;51.488;6.618;2024-03-06T22:07:35;46.40;;;28.63;;
5882;SDS011;2967;51.488;6.618;2024-03-06T22:12:39;51.73;;;30.37;;
5882;SDS011;2967;51.488;6.618;2024-03-06T22:17:42;47.77;;;30.23;;
5882;SDS011;2967;51.488;6.618;2024-03-06T22:22:49;52.63;;;30.80;;
5882;SDS011;2967;51.488;6.618;2024-03-06T22:27:53;54.07;;;32.33;;
5882;SDS011;2967;51.488;6.618;2024-03-06T22:32:57;51.57;;;30.80;;
5882;SDS011;2967;51.488;6.618;2024-03-06T22:38:00;51.00;;;29.80;;
5882;SDS011;2967;51.488;6.618;2024-03-06T22:43:04;51.03;;;30.53;;
5882;SDS011;2967;51.488;6.618;2024-03-06T22:48:08;48.97;;;29.90;;
5882;SDS011;2967;51.488;6.618;2024-03-06T22:53:12;56.37;;;30.87;;
5882;SDS011;2967;51.488;6.618;2024-03-06T22:58:20;50.37;;;31.37;;
5882;SDS011;2967;51.488;6.618;2024-03-06T23:03:23;59.90;;;33.30;;
5882;SDS011;2967;51.488;6.618;2024-03-06T23:08:27;52.47;;;30.57;;
5882;SDS011;2967;51.488;6.618;2024-03-06T23:13:32;47.90;;;28.60;;
5882;SDS011;2967;51.488;6.618;2024-03-06T23:18:35;49.93;;;29.10;;
5882;SDS011;2967;51.488;6.618;2024-03-06T23:23:38;52.57;;;31.10;;
5882;SDS011;2967;51.488;6.618;2024-03-06T23:28:42;52.40;;;29.50;;
5882;SDS011;2967;51.488;6.618;2024-03-06T23:33:45;59.67;;;34.00;;
5882;SDS011;2967;51.488;6.618;2024-03-06T23:38:48;53.13;;;33.60;;
5882;SDS011;2967;51.488;6.618;2024-03-06T23:43:55;52.87;;;31.87;;
5882;SDS011;2967;51.488;6.618;2024-03-06T23:48:58;55.97;;;29.30;;
5882;SDS011;2967;51.488;6.618;2024-03-06T23:54:02;61.20;;;32.23;;
5882;SDS011;2967;51.488;6.618;2024-03-06T23:59:06;66.20;;;33.20;;
